sensor_id;sensor_type;location;lat;lon;timestamp;pressure;altitude;pressure_sealevel;temperature
79488;BMP180;68949;53.176;18.088;2023-09-19T00:00:25;99481.60;;;
79488;BMP180;68949;53.176;18.088;2023-09-19T00:03:14;99483.40;;;
79488;BMP180;68949;53.176;18.088;2023-09-19T00:05:42;99486.60;;;
79488;BMP180;68949;53.176;18.088;2023-09-19T00:08:12;99491.40;;;
79488;BMP180;68949;53.176;18.088;2023-09-19T00:10:42;99487.80;;;
79488;BMP180;68949;53.176;18.088;2023-09-19T00:13:10;99488.40;;;
79488;BMP180;68949;53.176;18.088;2023-09-19T00:15:44;99482.00;;;
79488;BMP180;68949;53.176;18.088;2023-09-19T00:18:22;99484.40;;;
79488;BMP180;68949;53.176;18.088;2023-09-19T00:20:50;99496.80;;;
79488;BMP180;68949;53.176;18.088;2023-09-19T00:23:17;99502.20;;;
79488;BMP180;68949;53.176;18.088;2023-09-19T00:25:45;99501.40;;;
79488;BMP180;68949;53.176;18.088;2023-09-19T00:28:12;99509.20;;;
79488;BMP180;68949;53.176;18.088;2023-09-19T00:30:43;99505.60;;;
79488;BMP180;68949;53.176;18.088;2023-09-19T00:33:11;99508.20;;;
79488;BMP180;68949;53.176;18.088;2023-09-19T00:35:53;99509.20;;;
79488;BMP180;68949;53.176;18.088;2023-09-19T00:38:21;99512.60;;;
79488;BMP180;68949;53.176;18.088;2023-09-19T00:40:56;99511.40;;;
79488;BMP180;68949;53.176;18.088;2023-09-19T00:43:27;99511.60;;;
79488;BMP180;68949;53.176;18.088;2023-09-19T00:45:56;99510.00;;;
79488;BMP180;68949;53.176;18.088;2023-09-19T00:48:25;99507.40;;;
79488;BMP180;68949;53.176;18.088;2023-09-19T00:50:57;99504.00;;;
79488;BMP180;68949;53.176;18.088;2023-09-19T00:53:24;99508.60;;;
79488;BMP180;68949;53.176;18.088;2023-09-19T00:55:55;99506.60;;;
79488;BMP180;68949;53.176;18.088;2023-09-19T00:58:22;99504.20;;;
79488;BMP180;68949;53.176;18.088;2023-09-19T01:00:49;99503.80;;;
79488;BMP180;68949;53.176;18.088;2023-09-19T01:03:17;99505.00;;;
79488;BMP180;68949;53.176;18.088;2023-09-19T01:05:45;99504.20;;;
79488;BMP180;68949;53.176;18.088;2023-09-19T01:08:12;99496.00;;;
79488;BMP180;68949;53.176;18.088;2023-09-19T01:11:33;99495.60;;;
79488;BMP180;68949;53.176;18.088;2023-09-19T01:14:34;99492.40;;;
79488;BMP180;68949;53.176;18.088;2023-09-19T01:17:14;99492.60;;;
79488;BMP180;68949;53.176;18.088;2023-09-19T01:20:53;99497.60;;;
79488;BMP180;68949;53.176;18.088;2023-09-19T01:29:26;99486.80;;;
79488;BMP180;68949;53.176;18.088;2023-09-19T01:32:05;99482.60;;;
79488;BMP180;68949;53.176;18.088;2023-09-19T01:34:53;99476.00;;;
79488;BMP180;68949;53.176;18.088;2023-09-19T01:37:21;99464.00;;;
79488;BMP180;68949;53.176;18.088;2023-09-19T01:45:31;99454.00;;;
79488;BMP180;68949;53.176;18.088;2023-09-19T01:48:20;99446.20;;;
79488;BMP180;68949;53.176;18.088;2023-09-19T01:51:06;99448.40;;;
79488;BMP180;68949;53.176;18.088;2023-09-19T01:54:16;99458.80;;;
79488;BMP180;68949;53.176;18.088;2023-09-19T01:59:25;99461.80;;;
79488;BMP180;68949;53.176;18.088;2023-09-19T02:01:55;99475.60;;;
79488;BMP180;68949;53.176;18.088;2023-09-19T02:04:23;99474.80;;;
79488;BMP180;68949;53.176;18.088;2023-09-19T02:06:53;99472.60;;;
79488;BMP180;68949;53.176;18.088;2023-09-19T02:09:19;99475.40;;;
79488;BMP180;68949;53.176;18.088;2023-09-19T02:11:46;99476.40;;;
79488;BMP180;68949;53.176;18.088;2023-09-19T02:14:13;99482.60;;;
79488;BMP180;68949;53.176;18.088;2023-09-19T02:16:40;99491.00;;;
79488;BMP180;68949;53.176;18.088;2023-09-19T02:19:07;99492.40;;;
79488;BMP180;68949;53.176;18.088;2023-09-19T02:21:34;99493.00;;;
79488;BMP180;68949;53.176;18.088;2023-09-19T02:24:01;99484.20;;;
79488;BMP180;68949;53.176;18.088;2023-09-19T02:26:29;99489.20;;;
79488;BMP180;68949;53.176;18.088;2023-09-19T02:28:56;99495.80;;;
79488;BMP180;68949;53.176;18.088;2023-09-19T02:31:22;99503.60;;;
79488;BMP180;68949;53.176;18.088;2023-09-19T02:33:49;99497.40;;;
79488;BMP180;68949;53.176;18.088;2023-09-19T02:36:15;99492.80;;;
79488;BMP180;68949;53.176;18.088;2023-09-19T02:38:43;99481.40;;;
79488;BMP180;68949;53.176;18.088;2023-09-19T02:41:10;99480.80;;;
79488;BMP180;68949;53.176;18.088;2023-09-19T02:43:38;99492.00;;;
79488;BMP180;68949;53.176;18.088;2023-09-19T02:46:05;99502.20;;;
79488;BMP180;68949;53.176;18.088;2023-09-19T02:48:31;99502.80;;;
79488;BMP180;68949;53.176;18.088;2023-09-19T02:50:59;99504.40;;;
79488;BMP180;68949;53.176;18.088;2023-09-19T02:53:27;99512.60;;;
79488;BMP180;68949;53.176;18.088;2023-09-19T02:55:53;99523.00;;;
79488;BMP180;68949;53.176;18.088;2023-09-19T02:58:20;99526.40;;;
79488;BMP180;68949;53.176;18.088;2023-09-19T03:00:47;99536.80;;;
79488;BMP180;68949;53.176;18.088;2023-09-19T03:03:16;99546.40;;;
79488;BMP180;68949;53.176;18.088;2023-09-19T03:05:43;99540.60;;;
79488;BMP180;68949;53.176;18.088;2023-09-19T03:08:14;99534.40;;;
79488;BMP180;68949;53.176;18.088;2023-09-19T03:10:46;99545.80;;;
79488;BMP180;68949;53.176;18.088;2023-09-19T03:13:14;99549.80;;;
79488;BMP180;68949;53.176;18.088;2023-09-19T03:15:42;99545.00;;;
79488;BMP180;68949;53.176;18.088;2023-09-19T03:18:19;99534.80;;;
79488;BMP180;68949;53.176;18.088;2023-09-19T03:20:55;99543.40;;;
79488;BMP180;68949;53.176;18.088;2023-09-19T03:23:23;99539.60;;;
79488;BMP180;68949;53.176;18.088;2023-09-19T03:25:50;99540.40;;;
79488;BMP180;68949;53.176;18.088;2023-09-19T03:28:19;99538.80;;;
79488;BMP180;68949;53.176;18.088;2023-09-19T03:31:01;99537.80;;;
79488;BMP180;68949;53.176;18.088;2023-09-19T03:33:29;99534.20;;;
79488;BMP180;68949;53.176;18.088;2023-09-19T03:36:01;99538.00;;;
79488;BMP180;68949;53.176;18.088;2023-09-19T03:38:32;99537.00;;;
79488;BMP180;68949;53.176;18.088;2023-09-19T03:41:02;99540.40;;;
79488;BMP180;68949;53.176;18.088;2023-09-19T03:43:29;99535.20;;;
79488;BMP180;68949;53.176;18.088;2023-09-19T03:45:55;99534.40;;;
79488;BMP180;68949;53.176;18.088;2023-09-19T03:48:23;99538.60;;;
79488;BMP180;68949;53.176;18.088;2023-09-19T03:50:50;99538.20;;;
79488;BMP180;68949;53.176;18.088;2023-09-19T03:53:17;99526.60;;;
79488;BMP180;68949;53.176;18.088;2023-09-19T03:55:45;99520.60;;;
79488;BMP180;68949;53.176;18.088;2023-09-19T03:58:12;99527.80;;;
79488;BMP180;68949;53.176;18.088;2023-09-19T04:00:40;99528.60;;;
79488;BMP180;68949;53.176;18.088;2023-09-19T04:03:07;99532.40;;;
79488;BMP180;68949;53.176;18.088;2023-09-19T04:05:34;99528.80;;;
79488;BMP180;68949;53.176;18.088;2023-09-19T04:08:01;99524.80;;;
79488;BMP180;68949;53.176;18.088;2023-09-19T04:10:45;99522.40;;;
79488;BMP180;68949;53.176;18.088;2023-09-19T04:13:12;99519.00;;;
79488;BMP180;68949;53.176;18.088;2023-09-19T04:15:38;99516.80;;;
79488;BMP180;68949;53.176;18.088;2023-09-19T04:18:07;99506.20;;;
79488;BMP180;68949;53.176;18.088;2023-09-19T04:20:33;99497.80;;;
79488;BMP180;68949;53.176;18.088;2023-09-19T04:23:00;99485.60;;;
79488;BMP180;68949;53.176;18.088;2023-09-19T04:25:27;99485.00;;;
79488;BMP180;68949;53.176;18.088;2023-09-19T04:27:56;99490.20;;;
79488;BMP180;68949;53.176;18.088;2023-09-19T04:30:22;99498.80;;;
79488;BMP180;68949;53.176;18.088;2023-09-19T04:32:49;99492.40;;;
79488;BMP180;68949;53.176;18.088;2023-09-19T04:35:17;99489.80;;;
79488;BMP180;68949;53.176;18.088;2023-09-19T04:37:44;99492.40;;;
79488;BMP180;68949;53.176;18.088;2023-09-19T04:40:11;99497.40;;;
79488;BMP180;68949;53.176;18.088;2023-09-19T04:42:43;99513.40;;;
79488;BMP180;68949;53.176;18.088;2023-09-19T04:45:11;99510.80;;;
79488;BMP180;68949;53.176;18.088;2023-09-19T04:47:38;99515.80;;;
79488;BMP180;68949;53.176;18.088;2023-09-19T04:50:09;99517.00;;;
79488;BMP180;68949;53.176;18.088;2023-09-19T04:52:41;99513.00;;;
79488;BMP180;68949;53.176;18.088;2023-09-19T04:55:13;99505.60;;;
79488;BMP180;68949;53.176;18.088;2023-09-19T04:57:45;99505.00;;;
79488;BMP180;68949;53.176;18.088;2023-09-19T05:00:14;99507.00;;;
79488;BMP180;68949;53.176;18.088;2023-09-19T05:02:41;99507.40;;;
79488;BMP180;68949;53.176;18.088;2023-09-19T05:05:10;99506.40;;;
79488;BMP180;68949;53.176;18.088;2023-09-19T05:07:42;99503.40;;;
79488;BMP180;68949;53.176;18.088;2023-09-19T05:10:10;99491.80;;;
79488;BMP180;68949;53.176;18.088;2023-09-19T05:12:38;99490.20;;;
79488;BMP180;68949;53.176;18.088;2023-09-19T05:15:07;99491.60;;;
79488;BMP180;68949;53.176;18.088;2023-09-19T05:17:35;99489.60;;;
79488;BMP180;68949;53.176;18.088;2023-09-19T05:20:03;99480.80;;;
79488;BMP180;68949;53.176;18.088;2023-09-19T05:22:42;99482.40;;;
79488;BMP180;68949;53.176;18.088;2023-09-19T05:25:10;99495.00;;;
79488;BMP180;68949;53.176;18.088;2023-09-19T05:27:37;99501.20;;;
79488;BMP180;68949;53.176;18.088;2023-09-19T05:30:05;99498.40;;;
79488;BMP180;68949;53.176;18.088;2023-09-19T05:32:31;99496.00;;;
79488;BMP180;68949;53.176;18.088;2023-09-19T05:34:58;99499.00;;;
79488;BMP180;68949;53.176;18.088;2023-09-19T05:37:25;99502.40;;;
79488;BMP180;68949;53.176;18.088;2023-09-19T05:39:52;99505.40;;;
79488;BMP180;68949;53.176;18.088;2023-09-19T05:42:22;99517.40;;;
79488;BMP180;68949;53.176;18.088;2023-09-19T05:44:48;99518.60;;;
79488;BMP180;68949;53.176;18.088;2023-09-19T05:47:15;99516.00;;;
79488;BMP180;68949;53.176;18.088;2023-09-19T05:49:42;99514.60;;;
79488;BMP180;68949;53.176;18.088;2023-09-19T05:52:08;99517.40;;;
79488;BMP180;68949;53.176;18.088;2023-09-19T05:54:35;99517.80;;;
79488;BMP180;68949;53.176;18.088;2023-09-19T05:57:02;99513.00;;;
79488;BMP180;68949;53.176;18.088;2023-09-19T05:59:28;99506.20;;;
79488;BMP180;68949;53.176;18.088;2023-09-19T06:01:55;99499.80;;;
79488;BMP180;68949;53.176;18.088;2023-09-19T06:04:22;99498.20;;;
79488;BMP180;68949;53.176;18.088;2023-09-19T06:06:49;99495.60;;;
79488;BMP180;68949;53.176;18.088;2023-09-19T06:09:16;99501.20;;;
79488;BMP180;68949;53.176;18.088;2023-09-19T06:11:43;99509.20;;;
79488;BMP180;68949;53.176;18.088;2023-09-19T06:14:10;99511.80;;;
79488;BMP180;68949;53.176;18.088;2023-09-19T06:16:38;99511.20;;;
79488;BMP180;68949;53.176;18.088;2023-09-19T06:19:05;99511.80;;;
79488;BMP180;68949;53.176;18.088;2023-09-19T06:21:36;99510.00;;;
79488;BMP180;68949;53.176;18.088;2023-09-19T06:24:04;99509.40;;;
79488;BMP180;68949;53.176;18.088;2023-09-19T06:26:31;99507.80;;;
79488;BMP180;68949;53.176;18.088;2023-09-19T06:28:58;99517.80;;;
79488;BMP180;68949;53.176;18.088;2023-09-19T06:31:26;99518.80;;;
79488;BMP180;68949;53.176;18.088;2023-09-19T06:33:53;99516.80;;;
79488;BMP180;68949;53.176;18.088;2023-09-19T06:36:19;99520.60;;;
79488;BMP180;68949;53.176;18.088;2023-09-19T06:38:46;99525.80;;;
79488;BMP180;68949;53.176;18.088;2023-09-19T06:41:13;99533.60;;;
79488;BMP180;68949;53.176;18.088;2023-09-19T06:43:41;99532.60;;;
79488;BMP180;68949;53.176;18.088;2023-09-19T06:46:08;99533.80;;;
79488;BMP180;68949;53.176;18.088;2023-09-19T06:48:36;99539.80;;;
79488;BMP180;68949;53.176;18.088;2023-09-19T06:51:02;99542.00;;;
79488;BMP180;68949;53.176;18.088;2023-09-19T06:53:34;99544.60;;;
79488;BMP180;68949;53.176;18.088;2023-09-19T06:56:02;99541.20;;;
79488;BMP180;68949;53.176;18.088;2023-09-19T06:58:29;99542.20;;;
79488;BMP180;68949;53.176;18.088;2023-09-19T07:00:58;99544.20;;;
79488;BMP180;68949;53.176;18.088;2023-09-19T07:03:24;99546.00;;;
79488;BMP180;68949;53.176;18.088;2023-09-19T07:05:53;99546.20;;;
79488;BMP180;68949;53.176;18.088;2023-09-19T07:08:22;99546.80;;;
79488;BMP180;68949;53.176;18.088;2023-09-19T07:10:49;99549.60;;;
79488;BMP180;68949;53.176;18.088;2023-09-19T07:13:16;99553.00;;;
79488;BMP180;68949;53.176;18.088;2023-09-19T07:15:46;99552.40;;;
79488;BMP180;68949;53.176;18.088;2023-09-19T07:18:17;99553.80;;;
79488;BMP180;68949;53.176;18.088;2023-09-19T07:20:45;99553.40;;;
79488;BMP180;68949;53.176;18.088;2023-09-19T07:23:20;99553.40;;;
79488;BMP180;68949;53.176;18.088;2023-09-19T07:25:49;99561.80;;;
79488;BMP180;68949;53.176;18.088;2023-09-19T07:28:16;99559.60;;;
79488;BMP180;68949;53.176;18.088;2023-09-19T07:30:43;99553.20;;;
79488;BMP180;68949;53.176;18.088;2023-09-19T07:33:10;99555.20;;;
79488;BMP180;68949;53.176;18.088;2023-09-19T07:35:38;99556.00;;;
79488;BMP180;68949;53.176;18.088;2023-09-19T07:38:08;99563.60;;;
79488;BMP180;68949;53.176;18.088;2023-09-19T07:40:36;99560.40;;;
79488;BMP180;68949;53.176;18.088;2023-09-19T07:43:03;99566.20;;;
79488;BMP180;68949;53.176;18.088;2023-09-19T07:45:31;99564.40;;;
79488;BMP180;68949;53.176;18.088;2023-09-19T07:47:59;99563.60;;;
79488;BMP180;68949;53.176;18.088;2023-09-19T07:50:28;99564.60;;;
79488;BMP180;68949;53.176;18.088;2023-09-19T07:52:55;99570.40;;;
79488;BMP180;68949;53.176;18.088;2023-09-19T07:55:23;99570.60;;;
79488;BMP180;68949;53.176;18.088;2023-09-19T07:57:55;99576.20;;;
79488;BMP180;68949;53.176;18.088;2023-09-19T08:00:21;99580.60;;;
79488;BMP180;68949;53.176;18.088;2023-09-19T08:02:48;99583.80;;;
79488;BMP180;68949;53.176;18.088;2023-09-19T08:05:15;99582.60;;;
79488;BMP180;68949;53.176;18.088;2023-09-19T08:07:46;99586.00;;;
79488;BMP180;68949;53.176;18.088;2023-09-19T08:10:16;99587.20;;;
79488;BMP180;68949;53.176;18.088;2023-09-19T08:12:47;99587.40;;;
79488;BMP180;68949;53.176;18.088;2023-09-19T08:15:21;99585.80;;;
79488;BMP180;68949;53.176;18.088;2023-09-19T08:17:48;99580.80;;;
79488;BMP180;68949;53.176;18.088;2023-09-19T08:20:15;99583.40;;;
79488;BMP180;68949;53.176;18.088;2023-09-19T08:22:50;99585.60;;;
79488;BMP180;68949;53.176;18.088;2023-09-19T08:25:26;99583.80;;;
79488;BMP180;68949;53.176;18.088;2023-09-19T08:27:55;99585.40;;;
79488;BMP180;68949;53.176;18.088;2023-09-19T08:30:27;99587.00;;;
79488;BMP180;68949;53.176;18.088;2023-09-19T08:32:58;99585.60;;;
79488;BMP180;68949;53.176;18.088;2023-09-19T08:35:25;99587.60;;;
79488;BMP180;68949;53.176;18.088;2023-09-19T08:37:52;99594.60;;;
79488;BMP180;68949;53.176;18.088;2023-09-19T08:40:19;99598.60;;;
79488;BMP180;68949;53.176;18.088;2023-09-19T08:42:54;99603.60;;;
79488;BMP180;68949;53.176;18.088;2023-09-19T08:45:23;99612.20;;;
79488;BMP180;68949;53.176;18.088;2023-09-19T08:48:23;99617.60;;;
79488;BMP180;68949;53.176;18.088;2023-09-19T08:51:11;99618.60;;;
79488;BMP180;68949;53.176;18.088;2023-09-19T08:53:58;99623.40;;;
79488;BMP180;68949;53.176;18.088;2023-09-19T08:56:32;99618.80;;;
79488;BMP180;68949;53.176;18.088;2023-09-19T08:59:03;99610.60;;;
79488;BMP180;68949;53.176;18.088;2023-09-19T09:01:31;99615.40;;;
79488;BMP180;68949;53.176;18.088;2023-09-19T09:03:59;99614.80;;;
79488;BMP180;68949;53.176;18.088;2023-09-19T09:06:29;99606.20;;;
79488;BMP180;68949;53.176;18.088;2023-09-19T09:08:56;99610.80;;;
79488;BMP180;68949;53.176;18.088;2023-09-19T09:11:23;99610.00;;;
79488;BMP180;68949;53.176;18.088;2023-09-19T09:13:51;99606.00;;;
79488;BMP180;68949;53.176;18.088;2023-09-19T09:16:17;99609.20;;;
79488;BMP180;68949;53.176;18.088;2023-09-19T09:18:49;99606.00;;;
79488;BMP180;68949;53.176;18.088;2023-09-19T09:21:22;99602.40;;;
79488;BMP180;68949;53.176;18.088;2023-09-19T09:23:51;99607.60;;;
79488;BMP180;68949;53.176;18.088;2023-09-19T09:29:05;99610.00;;;
79488;BMP180;68949;53.176;18.088;2023-09-19T09:31:32;99609.40;;;
79488;BMP180;68949;53.176;18.088;2023-09-19T09:33:58;99605.00;;;
79488;BMP180;68949;53.176;18.088;2023-09-19T09:36:39;99611.20;;;
79488;BMP180;68949;53.176;18.088;2023-09-19T09:39:08;99594.00;;;
79488;BMP180;68949;53.176;18.088;2023-09-19T09:41:51;99597.60;;;
79488;BMP180;68949;53.176;18.088;2023-09-19T09:44:18;99603.40;;;
79488;BMP180;68949;53.176;18.088;2023-09-19T09:46:47;99600.20;;;
79488;BMP180;68949;53.176;18.088;2023-09-19T09:49:25;99601.20;;;
79488;BMP180;68949;53.176;18.088;2023-09-19T09:52:07;99611.00;;;
79488;BMP180;68949;53.176;18.088;2023-09-19T09:54:35;99608.00;;;
79488;BMP180;68949;53.176;18.088;2023-09-19T09:57:08;99613.20;;;
79488;BMP180;68949;53.176;18.088;2023-09-19T09:59:56;99605.60;;;
79488;BMP180;68949;53.176;18.088;2023-09-19T10:02:39;99598.00;;;
79488;BMP180;68949;53.176;18.088;2023-09-19T10:05:17;99600.60;;;
79488;BMP180;68949;53.176;18.088;2023-09-19T10:07:49;99599.00;;;
79488;BMP180;68949;53.176;18.088;2023-09-19T10:10:34;99609.40;;;
79488;BMP180;68949;53.176;18.088;2023-09-19T10:13:14;99602.60;;;
79488;BMP180;68949;53.176;18.088;2023-09-19T10:15:49;99600.40;;;
79488;BMP180;68949;53.176;18.088;2023-09-19T10:18:24;99592.40;;;
79488;BMP180;68949;53.176;18.088;2023-09-19T10:20:52;99593.60;;;
79488;BMP180;68949;53.176;18.088;2023-09-19T10:23:21;99599.40;;;
79488;BMP180;68949;53.176;18.088;2023-09-19T10:25:52;99609.20;;;
79488;BMP180;68949;53.176;18.088;2023-09-19T10:28:21;99603.80;;;
79488;BMP180;68949;53.176;18.088;2023-09-19T10:30:52;99610.40;;;
79488;BMP180;68949;53.176;18.088;2023-09-19T10:33:24;99622.40;;;
79488;BMP180;68949;53.176;18.088;2023-09-19T10:35:59;99636.00;;;
79488;BMP180;68949;53.176;18.088;2023-09-19T10:38:27;99623.20;;;
79488;BMP180;68949;53.176;18.088;2023-09-19T10:40:57;99619.60;;;
79488;BMP180;68949;53.176;18.088;2023-09-19T10:43:31;99609.60;;;
79488;BMP180;68949;53.176;18.088;2023-09-19T10:46:06;99620.20;;;
79488;BMP180;68949;53.176;18.088;2023-09-19T10:48:34;99628.60;;;
79488;BMP180;68949;53.176;18.088;2023-09-19T10:51:11;99594.60;;;
79488;BMP180;68949;53.176;18.088;2023-09-19T10:53:56;99609.80;;;
79488;BMP180;68949;53.176;18.088;2023-09-19T10:56:35;99586.80;;;
79488;BMP180;68949;53.176;18.088;2023-09-19T10:59:12;99609.40;;;
79488;BMP180;68949;53.176;18.088;2023-09-19T11:01:57;99604.80;;;
79488;BMP180;68949;53.176;18.088;2023-09-19T11:07:14;99555.20;;;
79488;BMP180;68949;53.176;18.088;2023-09-19T11:09:55;99553.40;;;
79488;BMP180;68949;53.176;18.088;2023-09-19T11:14:59;99574.40;;;
79488;BMP180;68949;53.176;18.088;2023-09-19T11:17:36;99547.00;;;
79488;BMP180;68949;53.176;18.088;2023-09-19T11:33:23;99565.60;;;
79488;BMP180;68949;53.176;18.088;2023-09-19T11:36:11;99558.60;;;
79488;BMP180;68949;53.176;18.088;2023-09-19T11:43:47;99514.00;;;
79488;BMP180;68949;53.176;18.088;2023-09-19T11:46:14;99535.40;;;
79488;BMP180;68949;53.176;18.088;2023-09-19T11:48:49;99542.40;;;
79488;BMP180;68949;53.176;18.088;2023-09-19T11:51:24;99528.40;;;
79488;BMP180;68949;53.176;18.088;2023-09-19T11:53:58;99534.40;;;
79488;BMP180;68949;53.176;18.088;2023-09-19T11:56:28;99543.80;;;
79488;BMP180;68949;53.176;18.088;2023-09-19T11:58:57;99546.80;;;
79488;BMP180;68949;53.176;18.088;2023-09-19T12:01:32;99534.00;;;
79488;BMP180;68949;53.176;18.088;2023-09-19T12:04:03;99556.60;;;
79488;BMP180;68949;53.176;18.088;2023-09-19T12:06:34;99539.60;;;
79488;BMP180;68949;53.176;18.088;2023-09-19T12:09:02;99528.20;;;
79488;BMP180;68949;53.176;18.088;2023-09-19T12:11:49;99510.00;;;
79488;BMP180;68949;53.176;18.088;2023-09-19T12:14:24;99528.60;;;
79488;BMP180;68949;53.176;18.088;2023-09-19T12:16:57;99541.80;;;
79488;BMP180;68949;53.176;18.088;2023-09-19T12:19:25;99517.40;;;
79488;BMP180;68949;53.176;18.088;2023-09-19T12:22:04;99523.40;;;
79488;BMP180;68949;53.176;18.088;2023-09-19T12:24:33;99538.40;;;
79488;BMP180;68949;53.176;18.088;2023-09-19T12:27:06;99545.40;;;
79488;BMP180;68949;53.176;18.088;2023-09-19T12:29:46;99533.80;;;
79488;BMP180;68949;53.176;18.088;2023-09-19T12:32:13;99548.20;;;
79488;BMP180;68949;53.176;18.088;2023-09-19T12:34:51;99559.80;;;
79488;BMP180;68949;53.176;18.088;2023-09-19T12:37:19;99566.80;;;
79488;BMP180;68949;53.176;18.088;2023-09-19T12:39:51;99555.40;;;
79488;BMP180;68949;53.176;18.088;2023-09-19T12:42:22;99580.80;;;
79488;BMP180;68949;53.176;18.088;2023-09-19T12:44:51;99556.40;;;
79488;BMP180;68949;53.176;18.088;2023-09-19T12:47:28;99585.60;;;
79488;BMP180;68949;53.176;18.088;2023-09-19T12:50:13;99591.40;;;
79488;BMP180;68949;53.176;18.088;2023-09-19T12:52:43;99589.80;;;
79488;BMP180;68949;53.176;18.088;2023-09-19T12:55:30;99595.00;;;
79488;BMP180;68949;53.176;18.088;2023-09-19T13:00:38;99578.40;;;
79488;BMP180;68949;53.176;18.088;2023-09-19T13:06:02;99574.00;;;
79488;BMP180;68949;53.176;18.088;2023-09-19T13:08:36;99566.00;;;
79488;BMP180;68949;53.176;18.088;2023-09-19T13:11:16;99545.80;;;
79488;BMP180;68949;53.176;18.088;2023-09-19T13:16:58;99534.80;;;
79488;BMP180;68949;53.176;18.088;2023-09-19T13:19:42;99566.40;;;
79488;BMP180;68949;53.176;18.088;2023-09-19T13:22:36;99580.60;;;
79488;BMP180;68949;53.176;18.088;2023-09-19T13:25:18;99549.20;;;
79488;BMP180;68949;53.176;18.088;2023-09-19T13:27:48;99546.00;;;
79488;BMP180;68949;53.176;18.088;2023-09-19T13:30:18;99582.00;;;
79488;BMP180;68949;53.176;18.088;2023-09-19T13:32:46;99582.20;;;
79488;BMP180;68949;53.176;18.088;2023-09-19T13:35:14;99576.00;;;
79488;BMP180;68949;53.176;18.088;2023-09-19T13:37:43;99580.80;;;
79488;BMP180;68949;53.176;18.088;2023-09-19T13:40:15;99575.40;;;
79488;BMP180;68949;53.176;18.088;2023-09-19T13:42:42;99571.20;;;
79488;BMP180;68949;53.176;18.088;2023-09-19T13:45:10;99569.00;;;
79488;BMP180;68949;53.176;18.088;2023-09-19T13:47:40;99562.00;;;
79488;BMP180;68949;53.176;18.088;2023-09-19T13:50:07;99574.80;;;
79488;BMP180;68949;53.176;18.088;2023-09-19T13:52:34;99576.20;;;
79488;BMP180;68949;53.176;18.088;2023-09-19T13:55:01;99565.40;;;
79488;BMP180;68949;53.176;18.088;2023-09-19T13:57:28;99580.80;;;
79488;BMP180;68949;53.176;18.088;2023-09-19T13:59:56;99569.40;;;
79488;BMP180;68949;53.176;18.088;2023-09-19T14:02:23;99561.40;;;
79488;BMP180;68949;53.176;18.088;2023-09-19T14:04:51;99554.60;;;
79488;BMP180;68949;53.176;18.088;2023-09-19T14:07:18;99570.80;;;
79488;BMP180;68949;53.176;18.088;2023-09-19T14:09:46;99568.40;;;
79488;BMP180;68949;53.176;18.088;2023-09-19T14:12:14;99563.20;;;
79488;BMP180;68949;53.176;18.088;2023-09-19T14:14:41;99563.60;;;
79488;BMP180;68949;53.176;18.088;2023-09-19T14:17:08;99553.60;;;
79488;BMP180;68949;53.176;18.088;2023-09-19T14:19:35;99538.00;;;
79488;BMP180;68949;53.176;18.088;2023-09-19T14:22:03;99534.60;;;
79488;BMP180;68949;53.176;18.088;2023-09-19T14:24:34;99551.00;;;
79488;BMP180;68949;53.176;18.088;2023-09-19T14:27:01;99560.00;;;
79488;BMP180;68949;53.176;18.088;2023-09-19T14:29:30;99556.40;;;
79488;BMP180;68949;53.176;18.088;2023-09-19T14:31:57;99551.00;;;
79488;BMP180;68949;53.176;18.088;2023-09-19T14:34:24;99552.80;;;
79488;BMP180;68949;53.176;18.088;2023-09-19T14:36:51;99557.80;;;
79488;BMP180;68949;53.176;18.088;2023-09-19T14:39:17;99544.80;;;
79488;BMP180;68949;53.176;18.088;2023-09-19T14:41:46;99555.20;;;
79488;BMP180;68949;53.176;18.088;2023-09-19T14:44:12;99547.00;;;
79488;BMP180;68949;53.176;18.088;2023-09-19T14:46:39;99556.40;;;
79488;BMP180;68949;53.176;18.088;2023-09-19T14:49:06;99570.20;;;
79488;BMP180;68949;53.176;18.088;2023-09-19T14:51:33;99566.00;;;
79488;BMP180;68949;53.176;18.088;2023-09-19T14:54:02;99569.60;;;
79488;BMP180;68949;53.176;18.088;2023-09-19T14:56:29;99566.60;;;
79488;BMP180;68949;53.176;18.088;2023-09-19T14:58:57;99552.40;;;
79488;BMP180;68949;53.176;18.088;2023-09-19T15:01:24;99565.20;;;
79488;BMP180;68949;53.176;18.088;2023-09-19T15:03:51;99580.80;;;
79488;BMP180;68949;53.176;18.088;2023-09-19T15:06:17;99581.80;;;
79488;BMP180;68949;53.176;18.088;2023-09-19T15:08:47;99595.00;;;
79488;BMP180;68949;53.176;18.088;2023-09-19T15:11:18;99598.80;;;
79488;BMP180;68949;53.176;18.088;2023-09-19T15:13:47;99599.40;;;
79488;BMP180;68949;53.176;18.088;2023-09-19T15:16:14;99607.00;;;
79488;BMP180;68949;53.176;18.088;2023-09-19T15:18:43;99614.00;;;
79488;BMP180;68949;53.176;18.088;2023-09-19T15:21:12;99619.20;;;
79488;BMP180;68949;53.176;18.088;2023-09-19T15:23:42;99617.00;;;
79488;BMP180;68949;53.176;18.088;2023-09-19T15:26:14;99623.60;;;
79488;BMP180;68949;53.176;18.088;2023-09-19T15:28:47;99623.40;;;
79488;BMP180;68949;53.176;18.088;2023-09-19T15:31:14;99634.40;;;
79488;BMP180;68949;53.176;18.088;2023-09-19T15:33:41;99641.00;;;
79488;BMP180;68949;53.176;18.088;2023-09-19T15:36:10;99635.40;;;
79488;BMP180;68949;53.176;18.088;2023-09-19T15:39:04;99635.80;;;
79488;BMP180;68949;53.176;18.088;2023-09-19T15:41:40;99644.80;;;
79488;BMP180;68949;53.176;18.088;2023-09-19T15:44:16;99642.20;;;
79488;BMP180;68949;53.176;18.088;2023-09-19T15:46:43;99644.60;;;
79488;BMP180;68949;53.176;18.088;2023-09-19T15:49:12;99651.80;;;
79488;BMP180;68949;53.176;18.088;2023-09-19T15:51:39;99654.20;;;
79488;BMP180;68949;53.176;18.088;2023-09-19T15:54:14;99657.20;;;
79488;BMP180;68949;53.176;18.088;2023-09-19T15:56:45;99659.60;;;
79488;BMP180;68949;53.176;18.088;2023-09-19T15:59:13;99664.80;;;
79488;BMP180;68949;53.176;18.088;2023-09-19T16:01:42;99669.40;;;
79488;BMP180;68949;53.176;18.088;2023-09-19T16:04:10;99670.40;;;
79488;BMP180;68949;53.176;18.088;2023-09-19T16:06:37;99672.40;;;
79488;BMP180;68949;53.176;18.088;2023-09-19T16:09:05;99671.80;;;
79488;BMP180;68949;53.176;18.088;2023-09-19T16:11:34;99679.00;;;